Time;durP1;ratioP1;P1;durP2;ratioP2;P2;SDS_P1;SDS_P2;PMS_P1;PMS_P2;Temp;Humidity;BMP_temperature;BMP_pressure;BME280_temperature;BME280_humidity;BME280_pressure;Samples;Min_cycle;Max_cycle;Signal;HPM_P1;HPM_P2
2022/05/28 00:02:14;;;;;;;;;;;21.00;42.70;;;;;;4927441;29;20017;-57
2022/05/28 00:04:40;;;;;;;;;;;21.00;42.70;;;;;;4923691;28;20330;-56
2022/05/28 00:07:08;;;;;;;;;;;21.00;42.70;;;;;;4920102;28;19964;-57
2022/05/28 00:09:34;;;;;;;;;;;21.00;42.70;;;;;;4942157;28;19962;-58
2022/05/28 00:12:03;;;;;;;;;;;21.00;42.70;;;;;;4925789;29;20357;-54
2022/05/28 00:14:29;;;;;;;;;;;21.00;42.60;;;;;;4923738;28;19969;-56
2022/05/28 00:16:56;;;;;;;;;;;21.00;42.70;;;;;;4929679;28;20221;-53
2022/05/28 00:19:23;;;;;;;;;;;21.00;42.60;;;;;;4939709;28;20011;-56
2022/05/28 00:21:49;;;;;;;;;;;21.00;42.60;;;;;;4929526;29;20443;-55
2022/05/28 00:24:16;;;;;;;;;;;21.00;42.60;;;;;;4938253;28;19935;-57
2022/05/28 00:26:44;;;;;;;;;;;21.00;42.60;;;;;;4917074;28;20017;-57
2022/05/28 00:29:12;;;;;;;;;;;21.00;42.60;;;;;;4928715;29;19923;-59
2022/05/28 00:31:39;;;;;;;;;;;21.00;42.60;;;;;;4927256;28;19954;-56
2022/05/28 00:34:05;;;;;;;;;;;21.00;42.60;;;;;;4930213;28;20005;-56
2022/05/28 00:36:32;;;;;;;;;;;21.00;42.60;;;;;;4944123;29;19930;-57
2022/05/28 00:38:59;;;;;;;;;;;21.00;42.60;;;;;;4925352;28;19929;-56
2022/05/28 00:41:26;;;;;;;;;;;21.00;42.60;;;;;;4934608;28;19935;-57
2022/05/28 00:43:52;;;;;;;;;;;21.00;42.60;;;;;;4920445;29;20297;-57
2022/05/28 00:46:22;;;;;;;;;;;20.90;42.40;;;;;;4922675;28;20046;-56
2022/05/28 00:48:53;;;;;;;;;;;21.00;43.10;;;;;;4914141;29;19923;-56
2022/05/28 00:51:20;;;;;;;;;;;20.90;42.40;;;;;;4938002;28;20364;-56
2022/05/28 00:53:46;;;;;;;;;;;20.90;42.40;;;;;;4943482;28;19923;-59
2022/05/28 00:56:13;;;;;;;;;;;20.90;42.40;;;;;;4927986;28;20427;-59
2022/05/28 00:58:40;;;;;;;;;;;20.90;42.40;;;;;;4944176;28;20361;-58
2022/05/28 01:01:07;;;;;;;;;;;20.90;42.30;;;;;;4927579;29;19969;-56
2022/05/28 01:03:36;;;;;;;;;;;20.90;42.30;;;;;;4944989;28;20018;-56
2022/05/28 01:06:04;;;;;;;;;;;20.90;42.30;;;;;;4932223;28;20030;-56
2022/05/28 01:08:32;;;;;;;;;;;20.90;42.40;;;;;;4942875;28;19922;-59
2022/05/28 01:11:01;;;;;;;;;;;20.90;42.30;;;;;;4925128;29;19922;-60
2022/05/28 01:13:29;;;;;;;;;;;20.90;42.30;;;;;;4925759;29;19923;-54
2022/05/28 01:15:57;;;;;;;;;;;20.90;42.30;;;;;;4926486;28;19923;-55
2022/05/28 01:18:25;;;;;;;;;;;20.90;42.30;;;;;;4928691;28;19929;-59
2022/05/28 01:20:54;;;;;;;;;;;20.90;42.30;;;;;;4925089;28;19923;-56
2022/05/28 01:23:24;;;;;;;;;;;20.90;42.20;;;;;;4928239;29;19966;-55
2022/05/28 01:25:56;;;;;;;;;;;20.80;41.90;;;;;;4926615;28;20275;-55
2022/05/28 01:28:25;;;;;;;;;;;20.80;41.60;;;;;;4921403;28;20064;-55
2022/05/28 01:30:51;;;;;;;;;;;20.70;41.60;;;;;;4932103;28;20020;-56
2022/05/28 01:33:18;;;;;;;;;;;20.70;41.70;;;;;;4939646;28;19981;-60
2022/05/28 01:35:45;;;;;;;;;;;20.70;41.90;;;;;;4926919;28;20451;-57
2022/05/28 01:38:12;;;;;;;;;;;20.60;41.90;;;;;;4926234;29;19927;-57
2022/05/28 01:40:39;;;;;;;;;;;20.60;42.00;;;;;;4943866;28;20675;-57
2022/05/28 01:43:06;;;;;;;;;;;20.60;42.00;;;;;;4947084;28;20410;-55
2022/05/28 01:45:34;;;;;;;;;;;20.60;42.00;;;;;;4937498;28;20261;-56
2022/05/28 01:48:03;;;;;;;;;;;20.60;42.10;;;;;;4943664;28;19922;-60
2022/05/28 01:50:31;;;;;;;;;;;20.60;42.10;;;;;;4945777;28;19923;-57
2022/05/28 01:52:57;;;;;;;;;;;20.60;42.00;;;;;;4923518;28;20282;-54
2022/05/28 01:55:24;;;;;;;;;;;20.50;41.80;;;;;;4930775;29;20400;-56
2022/05/28 01:57:54;;;;;;;;;;;20.60;42.00;;;;;;4938251;28;19923;-55
2022/05/28 02:00:21;;;;;;;;;;;20.50;41.90;;;;;;4938629;28;19992;-57
2022/05/28 02:02:49;;;;;;;;;;;20.50;41.90;;;;;;4929989;29;19923;-57
2022/05/28 02:05:15;;;;;;;;;;;20.50;42.00;;;;;;4945658;28;19927;-57
2022/05/28 02:07:42;;;;;;;;;;;20.50;42.00;;;;;;4929673;28;19931;-54
2022/05/28 02:10:10;;;;;;;;;;;20.50;42.10;;;;;;4919214;29;20276;-57
2022/05/28 02:12:38;;;;;;;;;;;20.60;42.10;;;;;;4929467;29;19980;-59
2022/05/28 02:15:09;;;;;;;;;;;20.60;42.20;;;;;;4946963;28;19923;-60
2022/05/28 02:17:38;;;;;;;;;;;20.60;42.20;;;;;;4928127;29;19935;-53
2022/05/28 02:20:08;;;;;;;;;;;20.60;42.20;;;;;;4927004;28;20376;-54
2022/05/28 02:22:36;;;;;;;;;;;20.60;42.10;;;;;;4932077;28;19923;-51
2022/05/28 02:25:04;;;;;;;;;;;20.60;42.10;;;;;;4932139;29;19923;-54
2022/05/28 02:27:31;;;;;;;;;;;20.60;42.10;;;;;;4926240;28;20009;-56
2022/05/28 02:29:59;;;;;;;;;;;20.60;42.20;;;;;;4931891;28;20297;-55
2022/05/28 02:32:26;;;;;;;;;;;20.60;42.20;;;;;;4941385;28;20014;-55
2022/05/28 02:34:53;;;;;;;;;;;20.60;42.20;;;;;;4931193;29;19926;-56
2022/05/28 02:37:21;;;;;;;;;;;20.60;42.20;;;;;;4931531;28;20344;-53
2022/05/28 02:39:48;;;;;;;;;;;20.60;42.20;;;;;;4931546;29;19933;-58
2022/05/28 02:42:15;;;;;;;;;;;20.60;42.20;;;;;;4927171;28;19927;-58
2022/05/28 02:44:41;;;;;;;;;;;20.60;42.20;;;;;;4931208;28;19927;-59
2022/05/28 02:47:08;;;;;;;;;;;20.60;42.20;;;;;;4946025;28;19965;-57
2022/05/28 02:49:35;;;;;;;;;;;20.60;42.20;;;;;;4945930;28;19969;-57
2022/05/28 02:52:02;;;;;;;;;;;20.60;42.20;;;;;;4929268;28;19965;-57
2022/05/28 02:54:32;;;;;;;;;;;20.60;42.20;;;;;;4944674;28;20754;-58
2022/05/28 02:56:58;;;;;;;;;;;20.60;42.20;;;;;;4932332;29;19977;-58
2022/05/28 02:59:25;;;;;;;;;;;20.60;42.20;;;;;;4928557;29;19930;-57
2022/05/28 03:01:52;;;;;;;;;;;20.60;42.20;;;;;;4940668;28;20018;-58
2022/05/28 03:04:18;;;;;;;;;;;20.60;42.20;;;;;;4946174;28;20021;-54
2022/05/28 03:06:45;;;;;;;;;;;20.60;42.20;;;;;;4944360;28;19929;-57
2022/05/28 03:09:11;;;;;;;;;;;20.70;42.30;;;;;;4921775;28;19923;-53
2022/05/28 03:11:39;;;;;;;;;;;20.60;42.20;;;;;;4919344;28;19989;-58
2022/05/28 03:14:06;;;;;;;;;;;20.60;42.20;;;;;;4931183;29;19934;-58
2022/05/28 03:16:33;;;;;;;;;;;20.60;42.20;;;;;;4926124;29;19927;-58
2022/05/28 03:18:59;;;;;;;;;;;20.60;42.20;;;;;;4936161;28;19927;-57
2022/05/28 03:21:26;;;;;;;;;;;20.60;42.20;;;;;;4925725;28;19923;-56
2022/05/28 03:23:53;;;;;;;;;;;20.60;42.20;;;;;;4925072;28;19962;-56
2022/05/28 03:26:20;;;;;;;;;;;20.60;42.20;;;;;;4926427;29;19945;-56
2022/05/28 03:28:49;;;;;;;;;;;20.60;42.20;;;;;;4938949;28;19964;-57
2022/05/28 03:31:15;;;;;;;;;;;20.60;42.20;;;;;;4928208;28;19927;-55
2022/05/28 03:33:42;;;;;;;;;;;20.60;42.20;;;;;;4914692;29;20355;-57
2022/05/28 03:36:09;;;;;;;;;;;20.60;42.20;;;;;;4914750;28;19984;-59
2022/05/28 03:38:35;;;;;;;;;;;20.60;42.20;;;;;;4929425;29;19929;-58
2022/05/28 03:41:02;;;;;;;;;;;20.60;42.20;;;;;;4930628;29;19922;-55
2022/05/28 03:43:29;;;;;;;;;;;20.60;42.20;;;;;;4941626;28;20021;-60
2022/05/28 03:45:57;;;;;;;;;;;20.60;42.20;;;;;;4913460;28;20022;-54
2022/05/28 03:48:23;;;;;;;;;;;20.60;42.20;;;;;;4929215;28;19927;-57
2022/05/28 03:50:50;;;;;;;;;;;20.60;42.20;;;;;;4929766;28;20026;-58
2022/05/28 03:53:16;;;;;;;;;;;20.60;42.20;;;;;;4929286;28;20245;-56
2022/05/28 03:55:43;;;;;;;;;;;20.60;42.20;;;;;;4929675;28;20014;-54
2022/05/28 03:58:10;;;;;;;;;;;20.60;42.20;;;;;;4928588;28;20367;-56
2022/05/28 04:00:37;;;;;;;;;;;20.60;42.20;;;;;;4928743;28;19992;-57
2022/05/28 04:03:05;;;;;;;;;;;20.60;42.20;;;;;;4929521;28;20287;-57
2022/05/28 04:05:31;;;;;;;;;;;20.60;42.20;;;;;;4951004;28;19930;-59
2022/05/28 04:07:58;;;;;;;;;;;20.60;42.20;;;;;;4944507;28;19927;-55
2022/05/28 04:10:25;;;;;;;;;;;20.60;42.20;;;;;;4938793;28;20296;-56
2022/05/28 04:12:52;;;;;;;;;;;20.60;42.20;;;;;;4945930;28;19935;-59
2022/05/28 04:15:19;;;;;;;;;;;20.60;42.30;;;;;;4943839;28;20023;-53
2022/05/28 04:17:45;;;;;;;;;;;20.60;42.20;;;;;;4925212;29;20636;-57
2022/05/28 04:20:14;;;;;;;;;;;20.60;42.30;;;;;;4933127;28;19923;-53
2022/05/28 04:22:40;;;;;;;;;;;20.60;42.30;;;;;;4924573;29;19929;-59
2022/05/28 04:25:08;;;;;;;;;;;20.60;42.30;;;;;;4931824;29;19923;-57
2022/05/28 04:27:34;;;;;;;;;;;20.70;42.40;;;;;;4927264;28;20261;-58
2022/05/28 04:30:01;;;;;;;;;;;20.70;42.40;;;;;;4926464;28;19941;-55
2022/05/28 04:32:28;;;;;;;;;;;20.70;42.40;;;;;;4935710;28;20070;-54
2022/05/28 04:34:55;;;;;;;;;;;20.70;42.40;;;;;;4928657;29;19929;-56
2022/05/28 04:37:23;;;;;;;;;;;20.70;42.40;;;;;;4939991;28;19993;-54
2022/05/28 04:39:50;;;;;;;;;;;20.70;42.50;;;;;;4924505;28;20024;-57
2022/05/28 04:42:17;;;;;;;;;;;20.70;42.50;;;;;;4943803;28;19926;-57
2022/05/28 04:44:43;;;;;;;;;;;20.70;42.50;;;;;;4928883;28;19923;-54
2022/05/28 04:47:10;;;;;;;;;;;20.70;42.50;;;;;;4939197;28;19950;-59
2022/05/28 04:49:37;;;;;;;;;;;20.60;42.40;;;;;;4927315;28;19934;-59
2022/05/28 04:52:04;;;;;;;;;;;20.70;42.50;;;;;;4921536;28;20000;-53
2022/05/28 04:54:32;;;;;;;;;;;20.60;42.50;;;;;;4918406;28;19977;-57
2022/05/28 04:56:58;;;;;;;;;;;20.70;42.50;;;;;;4922924;29;20004;-52
2022/05/28 04:59:25;;;;;;;;;;;20.60;42.50;;;;;;4927894;28;19923;-57
2022/05/28 05:01:52;;;;;;;;;;;20.60;42.50;;;;;;4936299;28;19923;-56
2022/05/28 05:04:18;;;;;;;;;;;20.60;42.60;;;;;;4928750;28;19935;-59
2022/05/28 05:06:45;;;;;;;;;;;20.60;42.60;;;;;;4946182;28;19927;-54
2022/05/28 05:09:11;;;;;;;;;;;20.60;42.70;;;;;;4946320;28;19961;-53
2022/05/28 05:11:39;;;;;;;;;;;20.60;42.70;;;;;;4947356;29;19933;-53
2022/05/28 05:14:06;;;;;;;;;;;20.60;42.70;;;;;;4931276;29;19927;-55
2022/05/28 05:16:33;;;;;;;;;;;20.60;42.80;;;;;;4946317;28;19935;-56
2022/05/28 05:19:00;;;;;;;;;;;20.60;42.80;;;;;;4930524;28;19958;-54
2022/05/28 05:21:26;;;;;;;;;;;20.60;42.90;;;;;;4947089;29;20256;-55
2022/05/28 05:23:53;;;;;;;;;;;20.60;42.90;;;;;;4931090;28;19923;-55
2022/05/28 05:26:20;;;;;;;;;;;20.60;42.90;;;;;;4919727;28;20228;-54
2022/05/28 05:28:48;;;;;;;;;;;20.60;42.90;;;;;;4923641;28;20068;-57
2022/05/28 05:31:15;;;;;;;;;;;20.60;42.90;;;;;;4934553;28;19923;-51
2022/05/28 05:33:42;;;;;;;;;;;20.60;42.90;;;;;;4933226;28;20275;-56
2022/05/28 05:36:08;;;;;;;;;;;20.60;42.90;;;;;;4929781;28;19923;-54
2022/05/28 05:38:35;;;;;;;;;;;20.60;42.90;;;;;;4959118;28;19969;-59
2022/05/28 05:41:02;;;;;;;;;;;20.60;42.90;;;;;;4930932;28;19930;-60
2022/05/28 05:43:28;;;;;;;;;;;20.60;42.90;;;;;;4947400;28;19938;-58
2022/05/28 05:45:57;;;;;;;;;;;20.60;42.90;;;;;;4942962;28;19968;-59
2022/05/28 05:48:23;;;;;;;;;;;20.60;42.90;;;;;;4949056;28;19930;-57
2022/05/28 05:50:50;;;;;;;;;;;20.60;42.90;;;;;;4939634;28;19927;-55
2022/05/28 05:53:17;;;;;;;;;;;20.70;43.00;;;;;;4941937;28;19922;-59
2022/05/28 05:55:43;;;;;;;;;;;20.70;43.00;;;;;;4937561;28;19933;-52
2022/05/28 05:58:10;;;;;;;;;;;20.70;43.00;;;;;;4951551;28;19921;-59
2022/05/28 06:00:37;;;;;;;;;;;20.70;43.00;;;;;;4948467;28;20001;-57
2022/05/28 06:03:05;;;;;;;;;;;20.70;43.10;;;;;;4944372;28;19934;-58
2022/05/28 06:05:32;;;;;;;;;;;20.70;43.00;;;;;;4926545;28;19976;-59
2022/05/28 06:07:58;;;;;;;;;;;20.70;43.10;;;;;;4929406;28;19937;-57
2022/05/28 06:10:25;;;;;;;;;;;20.70;43.10;;;;;;4930225;28;20005;-60
2022/05/28 06:12:52;;;;;;;;;;;20.70;43.10;;;;;;4930737;28;19981;-57
2022/05/28 06:15:19;;;;;;;;;;;20.70;43.20;;;;;;4926747;28;19927;-60
2022/05/28 06:17:45;;;;;;;;;;;20.70;43.20;;;;;;4932596;28;20343;-60
2022/05/28 06:20:14;;;;;;;;;;;20.70;43.20;;;;;;4946226;28;19923;-58
2022/05/28 06:22:40;;;;;;;;;;;20.70;43.20;;;;;;4933017;28;20013;-57
2022/05/28 06:25:07;;;;;;;;;;;20.70;43.20;;;;;;4944514;28;19931;-60
2022/05/28 06:27:34;;;;;;;;;;;20.60;43.20;;;;;;4927098;28;19954;-60
2022/05/28 06:30:01;;;;;;;;;;;20.60;43.20;;;;;;4928696;28;20009;-54
2022/05/28 06:32:27;;;;;;;;;;;20.60;43.20;;;;;;4934119;28;19927;-56
2022/05/28 06:34:54;;;;;;;;;;;20.60;43.10;;;;;;4944172;29;20026;-54
2022/05/28 06:37:22;;;;;;;;;;;20.60;43.20;;;;;;4927675;28;19923;-53
2022/05/28 06:39:49;;;;;;;;;;;20.60;43.20;;;;;;4953825;28;19927;-59
2022/05/28 06:42:16;;;;;;;;;;;20.60;43.20;;;;;;4939118;28;19922;-58
2022/05/28 06:44:42;;;;;;;;;;;20.60;43.20;;;;;;4940619;28;19923;-59
2022/05/28 06:47:09;;;;;;;;;;;20.60;43.30;;;;;;4948245;28;19941;-60
2022/05/28 06:49:35;;;;;;;;;;;20.60;43.20;;;;;;4935294;28;20036;-54
2022/05/28 06:52:02;;;;;;;;;;;20.60;43.30;;;;;;4948015;28;19923;-56
2022/05/28 06:54:31;;;;;;;;;;;20.60;43.30;;;;;;4929268;28;20248;-52
2022/05/28 06:56:57;;;;;;;;;;;20.60;43.30;;;;;;4941136;28;20362;-57
2022/05/28 06:59:24;;;;;;;;;;;20.60;43.20;;;;;;4929622;28;20310;-52
2022/05/28 07:01:51;;;;;;;;;;;20.60;43.30;;;;;;4940396;28;20372;-56
2022/05/28 07:04:17;;;;;;;;;;;20.60;43.30;;;;;;4919206;28;19923;-58
2022/05/28 07:06:44;;;;;;;;;;;20.60;43.30;;;;;;4948184;28;19933;-51
2022/05/28 07:09:11;;;;;;;;;;;20.50;43.20;;;;;;4927809;28;19923;-58
2022/05/28 07:11:39;;;;;;;;;;;20.50;43.20;;;;;;4947653;28;19931;-54
2022/05/28 07:14:06;;;;;;;;;;;20.50;43.20;;;;;;4933721;28;19965;-56
2022/05/28 07:16:32;;;;;;;;;;;20.50;43.30;;;;;;4938282;28;19965;-54
2022/05/28 07:18:59;;;;;;;;;;;20.50;43.30;;;;;;4952580;28;20376;-55
2022/05/28 07:21:26;;;;;;;;;;;20.50;43.30;;;;;;4928497;28;19923;-56
2022/05/28 07:23:54;;;;;;;;;;;20.50;43.30;;;;;;4930404;28;19927;-58
2022/05/28 07:26:21;;;;;;;;;;;20.50;43.30;;;;;;4951334;28;19927;-57
2022/05/28 07:28:49;;;;;;;;;;;20.50;43.20;;;;;;4932605;28;19973;-54
2022/05/28 07:31:17;;;;;;;;;;;20.50;43.20;;;;;;4949837;28;20002;-56
2022/05/28 07:33:44;;;;;;;;;;;20.40;42.90;;;;;;4938425;28;19993;-59
2022/05/28 07:36:11;;;;;;;;;;;20.40;42.80;;;;;;4942594;28;19927;-55
2022/05/28 07:38:38;;;;;;;;;;;20.40;45.00;;;;;;4929712;28;19989;-59
2022/05/28 07:41:05;;;;;;;;;;;20.40;42.70;;;;;;4962095;28;20360;-55
2022/05/28 07:43:32;;;;;;;;;;;20.40;42.60;;;;;;4943128;28;19933;-58
2022/05/28 07:46:00;;;;;;;;;;;20.30;42.50;;;;;;4938779;28;19921;-57
2022/05/28 07:48:26;;;;;;;;;;;20.30;42.50;;;;;;4939809;28;20021;-58
2022/05/28 07:51:00;;;;;;;;;;;20.30;42.70;;;;;;4926672;28;20386;-60
2022/05/28 07:53:27;;;;;;;;;;;20.30;42.80;;;;;;4950518;28;20387;-56
2022/05/28 07:55:53;;;;;;;;;;;20.30;42.80;;;;;;4940526;28;20035;-58
2022/05/28 07:58:20;;;;;;;;;;;20.30;42.80;;;;;;4934412;28;20603;-57
2022/05/28 08:00:47;;;;;;;;;;;20.30;42.80;;;;;;4942347;28;19982;-52
2022/05/28 08:03:16;;;;;;;;;;;20.30;42.80;;;;;;4955937;28;19923;-58
2022/05/28 08:05:45;;;;;;;;;;;20.20;42.80;;;;;;4949475;28;19953;-56
2022/05/28 08:08:11;;;;;;;;;;;20.20;42.80;;;;;;4934400;28;19933;-57
2022/05/28 08:10:38;;;;;;;;;;;20.20;42.70;;;;;;4959121;28;19930;-55
2022/05/28 08:13:05;;;;;;;;;;;20.20;42.80;;;;;;4957427;28;19927;-55
2022/05/28 08:15:32;;;;;;;;;;;20.20;42.70;;;;;;4934680;28;19927;-56
2022/05/28 08:17:59;;;;;;;;;;;20.20;42.60;;;;;;4941155;28;19922;-54
2022/05/28 08:23:10;;;;;;;;;;;20.20;42.60;;;;;;4950434;28;19935;-57
2022/05/28 08:25:37;;;;;;;;;;;20.20;42.60;;;;;;4925993;28;19931;-58
2022/05/28 08:28:04;;;;;;;;;;;20.10;42.60;;;;;;4914276;28;19923;-56
2022/05/28 08:30:30;;;;;;;;;;;20.10;42.60;;;;;;4921521;29;19976;-58
2022/05/28 08:32:57;;;;;;;;;;;20.10;42.60;;;;;;4963007;28;19928;-58
2022/05/28 08:35:24;;;;;;;;;;;20.10;43.30;;;;;;4956645;28;19929;-56
2022/05/28 08:37:52;;;;;;;;;;;20.10;42.80;;;;;;4954391;28;19976;-59
2022/05/28 08:40:18;;;;;;;;;;;20.10;42.90;;;;;;4932434;28;19927;-53
2022/05/28 08:42:46;;;;;;;;;;;20.20;42.90;;;;;;4932980;29;19969;-54
2022/05/28 08:45:13;;;;;;;;;;;20.10;42.80;;;;;;4947516;28;19958;-55
2022/05/28 08:47:42;;;;;;;;;;;20.20;42.90;;;;;;4934774;28;19996;-58
2022/05/28 08:50:10;;;;;;;;;;;20.20;42.90;;;;;;4933775;28;19939;-60
2022/05/28 08:52:37;;;;;;;;;;;20.20;42.90;;;;;;4931678;28;20015;-59
2022/05/28 08:55:07;;;;;;;;;;;20.10;42.80;;;;;;4931783;28;19977;-55
2022/05/28 08:57:37;;;;;;;;;;;20.20;42.90;;;;;;4948508;28;20069;-55
2022/05/28 09:00:05;;;;;;;;;;;20.20;42.90;;;;;;4931678;29;19929;-56
2022/05/28 09:02:33;;;;;;;;;;;20.20;42.90;;;;;;4947630;29;19958;-55
2022/05/28 09:05:00;;;;;;;;;;;20.20;42.90;;;;;;4928741;29;20545;-57
2022/05/28 09:07:27;;;;;;;;;;;20.20;42.90;;;;;;4951900;28;20348;-56
2022/05/28 09:09:54;;;;;;;;;;;20.20;43.00;;;;;;4943981;28;19945;-60
2022/05/28 09:12:24;;;;;;;;;;;20.20;43.00;;;;;;4929356;28;19950;-56
2022/05/28 09:14:51;;;;;;;;;;;20.30;43.20;;;;;;4927803;28;19927;-54
2022/05/28 09:17:21;;;;;;;;;;;20.20;43.00;;;;;;4930682;28;19933;-57
2022/05/28 09:19:48;;;;;;;;;;;20.20;43.00;;;;;;4928669;28;19922;-56
2022/05/28 09:22:15;;;;;;;;;;;20.20;43.20;;;;;;4929858;28;20276;-55
2022/05/28 09:24:42;;;;;;;;;;;20.20;43.30;;;;;;4930555;28;20031;-56
2022/05/28 09:27:26;;;;;;;;;;;20.20;43.30;;;;;;4946630;28;19927;-57
2022/05/28 09:30:01;;;;;;;;;;;20.20;43.30;;;;;;4931278;29;20359;-57
2022/05/28 09:32:29;;;;;;;;;;;20.10;43.30;;;;;;4947869;29;19922;-54
2022/05/28 09:34:59;;;;;;;;;;;20.10;43.40;;;;;;4930464;28;20390;-57
2022/05/28 09:37:28;;;;;;;;;;;20.10;43.60;;;;;;4947695;28;19931;-56
2022/05/28 09:39:55;;;;;;;;;;;20.10;43.70;;;;;;4916573;28;19927;-54
2022/05/28 09:42:25;;;;;;;;;;;20.10;43.70;;;;;;4912904;28;19929;-57
2022/05/28 09:44:55;;;;;;;;;;;20.10;43.70;;;;;;4942709;28;19935;-53
2022/05/28 09:47:23;;;;;;;;;;;20.10;43.60;;;;;;4922331;29;19926;-55
2022/05/28 09:49:50;;;;;;;;;;;20.10;43.60;;;;;;4995396;28;19934;-54
2022/05/28 09:52:27;;;;;;;;;;;20.20;43.70;;;;;;4972221;28;19925;-56
2022/05/28 09:55:08;;;;;;;;;;;20.20;43.90;;;;;;4962503;28;19944;-55
2022/05/28 09:57:42;;;;;;;;;;;20.20;44.00;;;;;;4933033;28;19927;-55
2022/05/28 10:00:11;;;;;;;;;;;20.20;43.90;;;;;;4931239;29;20645;-55
2022/05/28 10:02:42;;;;;;;;;;;20.30;44.00;;;;;;4947059;28;20018;-62
2022/05/28 10:05:13;;;;;;;;;;;20.30;43.60;;;;;;4931080;29;20530;-60
2022/05/28 10:07:41;;;;;;;;;;;20.30;44.10;;;;;;4925532;28;20249;-51
2022/05/28 10:10:16;;;;;;;;;;;20.40;52.80;;;;;;4932379;28;19923;-54
2022/05/28 10:12:42;;;;;;;;;;;20.30;54.10;;;;;;4925011;28;20320;-54
2022/05/28 10:15:11;;;;;;;;;;;20.40;44.90;;;;;;4946497;28;19923;-52
2022/05/28 10:17:38;;;;;;;;;;;20.40;44.70;;;;;;4931593;28;19923;-55
2022/05/28 10:20:14;;;;;;;;;;;20.40;44.40;;;;;;4934768;29;19923;-56
2022/05/28 10:22:40;;;;;;;;;;;20.40;44.20;;;;;;4935964;29;20025;-55
2022/05/28 10:25:09;;;;;;;;;;;20.40;45.80;;;;;;4933041;29;19929;-53
2022/05/28 10:27:37;;;;;;;;;;;20.50;46.90;;;;;;4936212;28;19923;-53
2022/05/28 10:30:05;;;;;;;;;;;20.50;47.90;;;;;;4932695;28;20307;-54
2022/05/28 10:32:33;;;;;;;;;;;20.40;48.80;;;;;;4924933;28;20304;-54
2022/05/28 10:35:00;;;;;;;;;;;20.50;44.10;;;;;;4947460;28;19929;-52
2022/05/28 10:37:28;;;;;;;;;;;20.50;44.00;;;;;;4947061;28;19976;-52
2022/05/28 10:40:02;;;;;;;;;;;20.50;44.10;;;;;;4935899;28;20346;-55
2022/05/28 10:42:28;;;;;;;;;;;20.50;44.00;;;;;;4932808;28;20402;-54
2022/05/28 10:44:56;;;;;;;;;;;20.50;44.00;;;;;;4935545;28;19958;-52
2022/05/28 10:47:33;;;;;;;;;;;20.60;44.10;;;;;;4934259;28;19923;-50
2022/05/28 10:50:03;;;;;;;;;;;20.60;44.10;;;;;;4953344;28;19954;-51
2022/05/28 10:52:32;;;;;;;;;;;20.60;44.10;;;;;;4964931;28;20343;-50
2022/05/28 10:55:00;;;;;;;;;;;20.60;44.10;;;;;;4930825;28;19922;-50
2022/05/28 10:57:30;;;;;;;;;;;20.60;44.00;;;;;;4931229;28;19950;-53
2022/05/28 11:00:00;;;;;;;;;;;20.60;44.00;;;;;;4931062;28;19965;-55
2022/05/28 11:02:32;;;;;;;;;;;20.60;43.40;;;;;;4950168;28;20026;-54
2022/05/28 11:05:00;;;;;;;;;;;20.70;44.60;;;;;;4950182;29;20018;-52
2022/05/28 11:07:31;;;;;;;;;;;20.70;44.00;;;;;;4932848;28;19929;-51
2022/05/28 11:10:01;;;;;;;;;;;20.70;44.00;;;;;;4933565;29;19930;-54
2022/05/28 11:12:37;;;;;;;;;;;20.70;44.00;;;;;;4931886;28;20021;-52
2022/05/28 11:15:09;;;;;;;;;;;20.70;44.10;;;;;;4978723;28;19987;-54
2022/05/28 11:17:41;;;;;;;;;;;20.70;44.10;;;;;;4941478;28;20229;-52
2022/05/28 11:20:22;;;;;;;;;;;20.70;44.20;;;;;;4968455;28;20330;-54
2022/05/28 11:22:54;;;;;;;;;;;20.70;44.10;;;;;;4932325;28;19931;-50
2022/05/28 11:25:23;;;;;;;;;;;20.80;44.20;;;;;;4933768;28;19929;-52
2022/05/28 11:27:53;;;;;;;;;;;20.80;44.20;;;;;;4931772;29;19948;-50
2022/05/28 11:30:20;;;;;;;;;;;20.80;44.20;;;;;;4935443;29;19930;-56
2022/05/28 11:32:48;;;;;;;;;;;20.80;44.20;;;;;;4934640;29;19923;-55
2022/05/28 11:35:16;;;;;;;;;;;20.80;44.20;;;;;;4944606;28;19929;-55
2022/05/28 11:37:44;;;;;;;;;;;20.80;44.20;;;;;;4946181;28;20431;-55
2022/05/28 11:40:13;;;;;;;;;;;20.80;44.20;;;;;;4953326;28;19930;-53
2022/05/28 11:42:41;;;;;;;;;;;20.80;44.20;;;;;;5033652;28;19932;-59
2022/05/28 11:45:09;;;;;;;;;;;20.90;44.30;;;;;;5034774;28;20259;-53
2022/05/28 11:47:43;;;;;;;;;;;20.90;44.30;;;;;;5037828;28;19921;-44
2022/05/28 11:52:56;;;;;;;;;;;20.90;44.30;;;;;;4936877;29;20013;-48
2022/05/28 11:55:25;;;;;;;;;;;20.90;44.40;;;;;;4938004;28;19931;-47
2022/05/28 11:57:52;;;;;;;;;;;20.90;44.40;;;;;;4949975;28;19944;-47
2022/05/28 12:00:20;;;;;;;;;;;20.90;44.60;;;;;;4933414;28;19946;-44
2022/05/28 12:02:47;;;;;;;;;;;20.90;44.70;;;;;;4949976;29;19930;-45
2022/05/28 12:05:18;;;;;;;;;;;20.90;44.70;;;;;;4951591;28;20025;-45
2022/05/28 12:07:44;;;;;;;;;;;20.90;44.70;;;;;;4954548;28;19923;-46
2022/05/28 12:10:12;;;;;;;;;;;21.00;44.80;;;;;;4952326;28;19930;-46
2022/05/28 12:12:51;;;;;;;;;;;21.00;44.80;;;;;;4954406;28;19969;-49
2022/05/28 12:15:22;;;;;;;;;;;21.00;44.80;;;;;;4935540;28;20279;-49
2022/05/28 12:17:55;;;;;;;;;;;21.00;44.80;;;;;;4980199;28;20387;-49
2022/05/28 12:20:26;;;;;;;;;;;21.00;44.90;;;;;;4935956;28;19930;-48
2022/05/28 12:22:58;;;;;;;;;;;21.10;45.00;;;;;;4939272;28;19927;-45
2022/05/28 12:25:31;;;;;;;;;;;21.10;45.00;;;;;;4936552;28;20021;-46
2022/05/28 12:28:08;;;;;;;;;;;21.10;45.00;;;;;;4939043;28;20017;-45
2022/05/28 12:30:51;;;;;;;;;;;21.10;45.00;;;;;;4936130;28;19923;-47
2022/05/28 12:33:19;;;;;;;;;;;21.10;45.00;;;;;;4951680;28;20021;-49
2022/05/28 12:35:49;;;;;;;;;;;21.10;45.00;;;;;;4935326;28;20018;-48
2022/05/28 12:38:18;;;;;;;;;;;21.10;45.00;;;;;;4991210;28;20358;-49
2022/05/28 12:40:47;;;;;;;;;;;21.20;45.10;;;;;;4935393;28;19982;-48
2022/05/28 12:43:16;;;;;;;;;;;21.20;45.10;;;;;;4952618;28;19923;-47
2022/05/28 12:45:43;;;;;;;;;;;21.20;45.10;;;;;;4938673;29;20014;-49
2022/05/28 12:48:13;;;;;;;;;;;21.20;45.10;;;;;;4935015;28;20220;-46
2022/05/28 12:50:43;;;;;;;;;;;21.20;45.10;;;;;;4938812;29;19927;-50
2022/05/28 12:53:12;;;;;;;;;;;21.20;45.10;;;;;;4938598;28;19995;-47
2022/05/28 12:55:39;;;;;;;;;;;21.20;45.10;;;;;;4932345;28;20359;-47
2022/05/28 12:58:07;;;;;;;;;;;21.20;45.10;;;;;;4932917;28;19923;-46
2022/05/28 13:00:42;;;;;;;;;;;21.20;45.10;;;;;;4934211;28;20012;-46
2022/05/28 13:03:09;;;;;;;;;;;21.30;45.20;;;;;;4935096;28;20432;-48
2022/05/28 13:05:38;;;;;;;;;;;21.20;45.10;;;;;;4936403;28;19929;-48
2022/05/28 13:08:05;;;;;;;;;;;21.30;45.20;;;;;;4932665;29;19977;-49
2022/05/28 13:10:32;;;;;;;;;;;21.30;45.20;;;;;;4952656;28;19954;-50
2022/05/28 13:13:02;;;;;;;;;;;21.30;45.20;;;;;;4936096;28;20279;-47
2022/05/28 13:15:47;;;;;;;;;;;21.30;45.20;;;;;;4932918;28;19929;-48
2022/05/28 13:18:32;;;;;;;;;;;21.30;45.30;;;;;;4931113;28;19985;-46
2022/05/28 13:21:02;;;;;;;;;;;21.30;45.30;;;;;;4926030;28;20291;-48
2022/05/28 13:23:32;;;;;;;;;;;21.30;45.20;;;;;;4950926;28;19922;-49
2022/05/28 13:26:06;;;;;;;;;;;21.30;45.20;;;;;;4935379;29;20394;-47
2022/05/28 13:28:48;;;;;;;;;;;21.30;45.10;;;;;;4953058;28;19977;-47
2022/05/28 13:31:16;;;;;;;;;;;21.30;45.10;;;;;;4956286;28;19927;-45
2022/05/28 13:33:43;;;;;;;;;;;21.30;45.10;;;;;;4938007;29;20030;-44
2022/05/28 13:36:11;;;;;;;;;;;21.30;45.10;;;;;;4949302;28;19958;-46
2022/05/28 13:38:38;;;;;;;;;;;21.30;45.00;;;;;;4948363;28;20402;-48
2022/05/28 13:41:09;;;;;;;;;;;21.30;45.00;;;;;;4935032;28;19981;-48
2022/05/28 13:43:36;;;;;;;;;;;21.30;45.00;;;;;;4956354;28;19946;-47
2022/05/28 13:46:04;;;;;;;;;;;21.30;45.00;;;;;;4940599;29;19926;-46
2022/05/28 13:48:34;;;;;;;;;;;21.30;45.00;;;;;;4937546;28;20029;-45
2022/05/28 13:51:01;;;;;;;;;;;21.30;45.00;;;;;;4939659;29;19923;-48
2022/05/28 13:53:29;;;;;;;;;;;21.30;45.00;;;;;;4935329;28;19923;-49
2022/05/28 13:55:57;;;;;;;;;;;21.40;45.10;;;;;;4938154;28;19927;-48
2022/05/28 13:58:24;;;;;;;;;;;21.40;45.10;;;;;;4933181;28;19922;-47
2022/05/28 14:00:55;;;;;;;;;;;21.40;45.20;;;;;;4932462;28;19922;-50
2022/05/28 14:03:25;;;;;;;;;;;21.30;45.10;;;;;;4933580;28;19930;-45
2022/05/28 14:05:53;;;;;;;;;;;21.40;45.20;;;;;;4935760;29;19923;-49
2022/05/28 14:08:21;;;;;;;;;;;21.40;45.30;;;;;;4917425;28;19930;-50
2022/05/28 14:10:48;;;;;;;;;;;21.40;45.30;;;;;;4935251;28;19976;-45
2022/05/28 14:13:19;;;;;;;;;;;21.40;45.30;;;;;;4935077;28;19969;-47
2022/05/28 14:15:49;;;;;;;;;;;21.40;45.20;;;;;;4924687;28;19950;-47
2022/05/28 14:18:17;;;;;;;;;;;21.40;45.20;;;;;;4948682;29;19926;-47
2022/05/28 14:20:44;;;;;;;;;;;21.40;45.20;;;;;;4939718;29;19923;-45
2022/05/28 14:23:13;;;;;;;;;;;21.40;45.20;;;;;;4949238;28;19923;-49
2022/05/28 14:25:40;;;;;;;;;;;21.40;45.20;;;;;;4951097;28;20256;-45
2022/05/28 14:28:09;;;;;;;;;;;21.40;45.20;;;;;;4934174;28;19923;-47